SJMN weather

Raposa Airport
Normândia, Roraima, Brazil

Public forecast

Using degrees Celsius for public forecast. Weather courtesy of forecast.io.

Closest aviation weather report (METAR) to Raposa Airport

Report is more than 6 hours old.

Closest report is Lethem Airport, 31.8 nm (59.0 km) SE. Retrieved 2020/02/25 21:00 UTC (3 days ago):

SYLT 252100Z 09010KT 9999 FEW028 32/22 Q//// NOSIG

Closest aviation forecast (TAF) to Raposa Airport

Forecast is more than 6 hours old.

Closest forecast is Lethem Airport, 31.8 nm (59.0 km) SE. Retrieved 2020/02/28 12:00 UTC (10 hours ago):

TAF SYLT 281100Z 2812/2824 08010KT 9999 SCT020